sensor_id;sensor_type;location;lat;lon;timestamp;P1;durP1;ratioP1;P2;durP2;ratioP2
56999;SDS011;42891;50.006;21.964;2023-12-20T00:02:32;50.83;;;28.48;;
56999;SDS011;42891;50.006;21.964;2023-12-20T00:06:32;42.73;;;25.33;;
56999;SDS011;42891;50.006;21.964;2023-12-20T00:10:33;61.03;;;33.38;;
56999;SDS011;42891;50.006;21.964;2023-12-20T00:14:33;44.75;;;26.00;;
56999;SDS011;42891;50.006;21.964;2023-12-20T00:18:33;42.03;;;24.08;;
56999;SDS011;42891;50.006;21.964;2023-12-20T00:22:33;43.72;;;25.15;;
56999;SDS011;42891;50.006;21.964;2023-12-20T00:26:34;50.20;;;29.97;;
56999;SDS011;42891;50.006;21.964;2023-12-20T00:30:34;41.83;;;24.73;;
56999;SDS011;42891;50.006;21.964;2023-12-20T00:34:34;50.22;;;30.08;;
56999;SDS011;42891;50.006;21.964;2023-12-20T00:38:35;37.70;;;23.47;;
56999;SDS011;42891;50.006;21.964;2023-12-20T00:42:35;39.20;;;22.35;;
56999;SDS011;42891;50.006;21.964;2023-12-20T00:46:38;38.05;;;22.08;;
56999;SDS011;42891;50.006;21.964;2023-12-20T00:50:39;42.77;;;25.20;;
56999;SDS011;42891;50.006;21.964;2023-12-20T00:54:39;38.60;;;23.65;;
56999;SDS011;42891;50.006;21.964;2023-12-20T00:58:39;37.03;;;21.88;;
56999;SDS011;42891;50.006;21.964;2023-12-20T01:02:40;36.45;;;20.83;;
56999;SDS011;42891;50.006;21.964;2023-12-20T01:06:40;37.47;;;20.60;;
56999;SDS011;42891;50.006;21.964;2023-12-20T01:10:40;35.22;;;22.40;;
56999;SDS011;42891;50.006;21.964;2023-12-20T01:14:41;36.38;;;20.42;;
56999;SDS011;42891;50.006;21.964;2023-12-20T01:18:41;34.70;;;20.58;;
56999;SDS011;42891;50.006;21.964;2023-12-20T01:22:41;35.73;;;20.97;;
56999;SDS011;42891;50.006;21.964;2023-12-20T01:26:42;33.58;;;18.70;;
56999;SDS011;42891;50.006;21.964;2023-12-20T01:30:43;41.03;;;23.77;;
56999;SDS011;42891;50.006;21.964;2023-12-20T01:34:43;34.67;;;19.97;;
56999;SDS011;42891;50.006;21.964;2023-12-20T01:38:43;32.60;;;19.87;;
56999;SDS011;42891;50.006;21.964;2023-12-20T01:42:44;34.37;;;19.73;;
56999;SDS011;42891;50.006;21.964;2023-12-20T01:46:44;37.55;;;21.05;;
56999;SDS011;42891;50.006;21.964;2023-12-20T01:50:46;36.45;;;22.02;;
56999;SDS011;42891;50.006;21.964;2023-12-20T01:54:46;31.08;;;18.95;;
56999;SDS011;42891;50.006;21.964;2023-12-20T01:58:47;32.28;;;19.33;;
56999;SDS011;42891;50.006;21.964;2023-12-20T02:02:48;32.97;;;20.52;;
56999;SDS011;42891;50.006;21.964;2023-12-20T02:06:52;32.22;;;19.05;;
56999;SDS011;42891;50.006;21.964;2023-12-20T02:10:53;33.13;;;20.30;;
56999;SDS011;42891;50.006;21.964;2023-12-20T02:14:54;33.42;;;20.05;;
56999;SDS011;42891;50.006;21.964;2023-12-20T02:18:55;32.92;;;18.80;;
56999;SDS011;42891;50.006;21.964;2023-12-20T02:22:55;34.97;;;18.83;;
56999;SDS011;42891;50.006;21.964;2023-12-20T02:26:55;33.77;;;20.20;;
56999;SDS011;42891;50.006;21.964;2023-12-20T02:30:55;32.90;;;19.48;;
56999;SDS011;42891;50.006;21.964;2023-12-20T02:34:56;34.13;;;20.10;;
56999;SDS011;42891;50.006;21.964;2023-12-20T02:38:56;34.65;;;20.13;;
56999;SDS011;42891;50.006;21.964;2023-12-20T02:42:56;35.87;;;21.00;;
56999;SDS011;42891;50.006;21.964;2023-12-20T02:46:57;35.53;;;19.97;;
56999;SDS011;42891;50.006;21.964;2023-12-20T02:50:57;37.77;;;20.47;;
56999;SDS011;42891;50.006;21.964;2023-12-20T02:54:57;35.60;;;21.13;;
56999;SDS011;42891;50.006;21.964;2023-12-20T02:58:58;32.13;;;19.93;;
56999;SDS011;42891;50.006;21.964;2023-12-20T03:02:58;35.80;;;20.45;;
56999;SDS011;42891;50.006;21.964;2023-12-20T03:06:59;35.95;;;20.85;;
56999;SDS011;42891;50.006;21.964;2023-12-20T03:11:00;35.22;;;21.60;;
56999;SDS011;42891;50.006;21.964;2023-12-20T03:15:00;37.85;;;21.40;;
56999;SDS011;42891;50.006;21.964;2023-12-20T03:19:00;35.47;;;20.00;;
56999;SDS011;42891;50.006;21.964;2023-12-20T03:23:00;33.83;;;20.53;;
56999;SDS011;42891;50.006;21.964;2023-12-20T03:27:01;36.30;;;21.95;;
56999;SDS011;42891;50.006;21.964;2023-12-20T03:31:01;35.92;;;20.73;;
56999;SDS011;42891;50.006;21.964;2023-12-20T03:35:02;36.60;;;20.35;;
56999;SDS011;42891;50.006;21.964;2023-12-20T03:39:02;33.65;;;20.55;;
56999;SDS011;42891;50.006;21.964;2023-12-20T03:43:03;31.33;;;18.83;;
56999;SDS011;42891;50.006;21.964;2023-12-20T03:47:03;34.88;;;21.33;;
56999;SDS011;42891;50.006;21.964;2023-12-20T03:51:04;33.70;;;19.98;;
56999;SDS011;42891;50.006;21.964;2023-12-20T03:55:04;32.38;;;19.77;;
56999;SDS011;42891;50.006;21.964;2023-12-20T03:59:05;33.60;;;20.40;;
56999;SDS011;42891;50.006;21.964;2023-12-20T04:03:05;33.17;;;20.07;;
56999;SDS011;42891;50.006;21.964;2023-12-20T04:07:05;32.60;;;19.75;;
56999;SDS011;42891;50.006;21.964;2023-12-20T04:11:05;28.57;;;18.53;;
56999;SDS011;42891;50.006;21.964;2023-12-20T04:15:06;31.13;;;18.73;;
56999;SDS011;42891;50.006;21.964;2023-12-20T04:19:09;33.80;;;19.15;;
56999;SDS011;42891;50.006;21.964;2023-12-20T04:23:09;34.50;;;20.33;;
56999;SDS011;42891;50.006;21.964;2023-12-20T04:27:09;34.57;;;20.53;;
56999;SDS011;42891;50.006;21.964;2023-12-20T04:31:10;33.03;;;20.88;;
56999;SDS011;42891;50.006;21.964;2023-12-20T04:35:10;33.50;;;19.55;;
56999;SDS011;42891;50.006;21.964;2023-12-20T04:39:11;31.30;;;19.17;;
56999;SDS011;42891;50.006;21.964;2023-12-20T04:43:12;33.30;;;20.05;;
56999;SDS011;42891;50.006;21.964;2023-12-20T04:47:13;33.03;;;19.65;;
56999;SDS011;42891;50.006;21.964;2023-12-20T04:51:13;34.20;;;19.67;;
56999;SDS011;42891;50.006;21.964;2023-12-20T04:55:13;30.80;;;19.15;;
56999;SDS011;42891;50.006;21.964;2023-12-20T04:59:14;31.23;;;18.20;;
56999;SDS011;42891;50.006;21.964;2023-12-20T05:03:15;33.63;;;18.67;;
56999;SDS011;42891;50.006;21.964;2023-12-20T05:07:15;28.20;;;17.80;;
56999;SDS011;42891;50.006;21.964;2023-12-20T05:11:15;34.13;;;19.37;;
56999;SDS011;42891;50.006;21.964;2023-12-20T05:15:16;30.80;;;18.02;;
56999;SDS011;42891;50.006;21.964;2023-12-20T05:19:16;33.03;;;19.42;;
56999;SDS011;42891;50.006;21.964;2023-12-20T05:23:16;33.07;;;19.77;;
56999;SDS011;42891;50.006;21.964;2023-12-20T05:27:17;32.17;;;19.10;;
56999;SDS011;42891;50.006;21.964;2023-12-20T05:31:17;31.60;;;18.58;;
56999;SDS011;42891;50.006;21.964;2023-12-20T05:35:17;29.02;;;17.83;;
56999;SDS011;42891;50.006;21.964;2023-12-20T05:39:19;31.10;;;17.85;;
56999;SDS011;42891;50.006;21.964;2023-12-20T05:43:19;30.67;;;18.83;;
56999;SDS011;42891;50.006;21.964;2023-12-20T05:47:19;31.40;;;18.30;;
56999;SDS011;42891;50.006;21.964;2023-12-20T05:51:20;31.83;;;18.48;;
56999;SDS011;42891;50.006;21.964;2023-12-20T05:55:20;28.73;;;17.13;;
56999;SDS011;42891;50.006;21.964;2023-12-20T05:59:20;31.05;;;17.55;;
56999;SDS011;42891;50.006;21.964;2023-12-20T06:03:20;27.30;;;17.40;;
56999;SDS011;42891;50.006;21.964;2023-12-20T06:07:21;31.95;;;18.42;;
56999;SDS011;42891;50.006;21.964;2023-12-20T06:11:23;29.55;;;18.38;;
56999;SDS011;42891;50.006;21.964;2023-12-20T06:15:23;35.38;;;19.50;;
56999;SDS011;42891;50.006;21.964;2023-12-20T06:19:24;31.95;;;18.85;;
56999;SDS011;42891;50.006;21.964;2023-12-20T06:23:24;29.05;;;17.17;;
56999;SDS011;42891;50.006;21.964;2023-12-20T06:27:24;33.80;;;19.17;;
56999;SDS011;42891;50.006;21.964;2023-12-20T06:31:25;28.95;;;17.90;;
56999;SDS011;42891;50.006;21.964;2023-12-20T06:35:25;31.10;;;18.15;;
56999;SDS011;42891;50.006;21.964;2023-12-20T06:39:25;33.15;;;19.17;;
56999;SDS011;42891;50.006;21.964;2023-12-20T06:43:25;36.45;;;18.98;;
56999;SDS011;42891;50.006;21.964;2023-12-20T06:47:26;36.38;;;19.05;;
56999;SDS011;42891;50.006;21.964;2023-12-20T06:51:26;32.25;;;19.15;;
56999;SDS011;42891;50.006;21.964;2023-12-20T06:55:26;30.77;;;18.58;;
56999;SDS011;42891;50.006;21.964;2023-12-20T06:59:27;33.78;;;18.85;;
56999;SDS011;42891;50.006;21.964;2023-12-20T07:03:27;27.87;;;17.80;;
56999;SDS011;42891;50.006;21.964;2023-12-20T07:07:27;28.90;;;17.53;;
56999;SDS011;42891;50.006;21.964;2023-12-20T07:11:28;27.98;;;16.35;;
56999;SDS011;42891;50.006;21.964;2023-12-20T07:15:28;32.38;;;18.05;;
56999;SDS011;42891;50.006;21.964;2023-12-20T07:19:29;35.13;;;19.30;;
56999;SDS011;42891;50.006;21.964;2023-12-20T07:23:29;35.40;;;19.17;;
56999;SDS011;42891;50.006;21.964;2023-12-20T07:27:30;38.28;;;18.73;;
56999;SDS011;42891;50.006;21.964;2023-12-20T07:31:30;28.98;;;17.83;;
56999;SDS011;42891;50.006;21.964;2023-12-20T07:35:31;35.90;;;18.83;;
56999;SDS011;42891;50.006;21.964;2023-12-20T07:39:31;30.23;;;16.33;;
56999;SDS011;42891;50.006;21.964;2023-12-20T07:43:31;38.95;;;19.15;;
56999;SDS011;42891;50.006;21.964;2023-12-20T07:47:31;35.53;;;17.53;;
56999;SDS011;42891;50.006;21.964;2023-12-20T07:51:32;30.67;;;16.67;;
56999;SDS011;42891;50.006;21.964;2023-12-20T07:55:32;24.03;;;14.40;;
56999;SDS011;42891;50.006;21.964;2023-12-20T07:59:32;31.30;;;17.27;;
56999;SDS011;42891;50.006;21.964;2023-12-20T08:03:32;28.83;;;17.02;;
56999;SDS011;42891;50.006;21.964;2023-12-20T08:07:33;27.57;;;17.00;;
56999;SDS011;42891;50.006;21.964;2023-12-20T08:11:33;27.60;;;17.38;;
56999;SDS011;42891;50.006;21.964;2023-12-20T08:15:33;27.77;;;15.75;;
56999;SDS011;42891;50.006;21.964;2023-12-20T08:19:34;28.63;;;16.33;;
56999;SDS011;42891;50.006;21.964;2023-12-20T08:23:34;27.13;;;15.75;;
56999;SDS011;42891;50.006;21.964;2023-12-20T08:27:41;30.67;;;17.45;;
56999;SDS011;42891;50.006;21.964;2023-12-20T08:31:41;29.67;;;16.80;;
56999;SDS011;42891;50.006;21.964;2023-12-20T08:35:41;25.60;;;16.75;;
56999;SDS011;42891;50.006;21.964;2023-12-20T08:39:42;30.02;;;17.45;;
56999;SDS011;42891;50.006;21.964;2023-12-20T08:43:44;30.83;;;17.35;;
56999;SDS011;42891;50.006;21.964;2023-12-20T08:47:44;28.30;;;17.02;;
56999;SDS011;42891;50.006;21.964;2023-12-20T08:51:45;38.60;;;21.40;;
56999;SDS011;42891;50.006;21.964;2023-12-20T08:55:46;34.92;;;18.50;;
56999;SDS011;42891;50.006;21.964;2023-12-20T08:59:47;29.00;;;17.75;;
56999;SDS011;42891;50.006;21.964;2023-12-20T09:03:47;32.33;;;18.65;;
56999;SDS011;42891;50.006;21.964;2023-12-20T09:07:48;31.67;;;19.00;;
56999;SDS011;42891;50.006;21.964;2023-12-20T09:11:48;29.75;;;18.20;;
56999;SDS011;42891;50.006;21.964;2023-12-20T09:15:51;32.58;;;18.33;;
56999;SDS011;42891;50.006;21.964;2023-12-20T09:19:51;28.70;;;17.45;;
56999;SDS011;42891;50.006;21.964;2023-12-20T09:23:53;41.45;;;26.33;;
56999;SDS011;42891;50.006;21.964;2023-12-20T09:27:54;29.50;;;18.08;;
56999;SDS011;42891;50.006;21.964;2023-12-20T09:31:54;31.00;;;18.77;;
56999;SDS011;42891;50.006;21.964;2023-12-20T09:35:54;32.35;;;18.90;;
56999;SDS011;42891;50.006;21.964;2023-12-20T09:39:55;31.60;;;18.88;;
56999;SDS011;42891;50.006;21.964;2023-12-20T09:43:55;30.13;;;17.73;;
56999;SDS011;42891;50.006;21.964;2023-12-20T09:48:01;28.52;;;18.83;;
56999;SDS011;42891;50.006;21.964;2023-12-20T09:52:04;28.77;;;18.70;;
56999;SDS011;42891;50.006;21.964;2023-12-20T09:56:07;32.95;;;19.10;;
56999;SDS011;42891;50.006;21.964;2023-12-20T10:00:08;30.30;;;19.15;;
56999;SDS011;42891;50.006;21.964;2023-12-20T10:04:09;34.75;;;19.55;;
56999;SDS011;42891;50.006;21.964;2023-12-20T10:08:12;33.17;;;19.25;;
56999;SDS011;42891;50.006;21.964;2023-12-20T10:12:12;31.27;;;18.45;;
56999;SDS011;42891;50.006;21.964;2023-12-20T10:16:13;32.50;;;19.95;;
56999;SDS011;42891;50.006;21.964;2023-12-20T10:20:13;30.98;;;19.80;;
56999;SDS011;42891;50.006;21.964;2023-12-20T10:24:17;33.35;;;20.27;;
56999;SDS011;42891;50.006;21.964;2023-12-20T10:28:17;32.75;;;21.02;;
56999;SDS011;42891;50.006;21.964;2023-12-20T10:32:26;33.25;;;19.23;;
56999;SDS011;42891;50.006;21.964;2023-12-20T10:36:28;34.85;;;19.88;;
56999;SDS011;42891;50.006;21.964;2023-12-20T10:40:30;34.08;;;20.33;;
56999;SDS011;42891;50.006;21.964;2023-12-20T10:44:31;35.55;;;20.77;;
56999;SDS011;42891;50.006;21.964;2023-12-20T10:48:31;33.33;;;20.75;;
56999;SDS011;42891;50.006;21.964;2023-12-20T10:52:32;43.60;;;24.27;;
56999;SDS011;42891;50.006;21.964;2023-12-20T10:56:32;38.25;;;21.35;;
56999;SDS011;42891;50.006;21.964;2023-12-20T11:00:39;38.55;;;22.23;;
56999;SDS011;42891;50.006;21.964;2023-12-20T11:13:13;33.45;;;20.45;;
56999;SDS011;42891;50.006;21.964;2023-12-20T11:17:20;29.63;;;18.67;;
56999;SDS011;42891;50.006;21.964;2023-12-20T11:21:21;29.38;;;17.75;;
56999;SDS011;42891;50.006;21.964;2023-12-20T11:25:21;30.67;;;19.10;;
56999;SDS011;42891;50.006;21.964;2023-12-20T11:29:32;32.40;;;17.88;;
56999;SDS011;42891;50.006;21.964;2023-12-20T11:33:36;29.50;;;17.88;;
56999;SDS011;42891;50.006;21.964;2023-12-20T11:37:38;30.80;;;18.65;;
56999;SDS011;42891;50.006;21.964;2023-12-20T11:41:44;34.80;;;19.55;;
56999;SDS011;42891;50.006;21.964;2023-12-20T11:45:49;29.95;;;17.70;;
56999;SDS011;42891;50.006;21.964;2023-12-20T11:49:51;27.60;;;17.08;;
56999;SDS011;42891;50.006;21.964;2023-12-20T11:53:51;29.58;;;18.13;;
56999;SDS011;42891;50.006;21.964;2023-12-20T11:57:52;28.02;;;17.77;;
56999;SDS011;42891;50.006;21.964;2023-12-20T12:01:53;26.50;;;16.23;;
56999;SDS011;42891;50.006;21.964;2023-12-20T12:05:56;27.17;;;17.10;;
56999;SDS011;42891;50.006;21.964;2023-12-20T12:09:58;28.40;;;17.00;;
56999;SDS011;42891;50.006;21.964;2023-12-20T12:13:58;29.73;;;18.30;;
56999;SDS011;42891;50.006;21.964;2023-12-20T12:17:58;30.80;;;19.55;;
56999;SDS011;42891;50.006;21.964;2023-12-20T12:26:13;31.25;;;19.42;;
56999;SDS011;42891;50.006;21.964;2023-12-20T12:30:15;29.83;;;19.00;;
56999;SDS011;42891;50.006;21.964;2023-12-20T12:34:18;35.17;;;19.80;;
56999;SDS011;42891;50.006;21.964;2023-12-20T12:38:21;32.42;;;19.55;;
56999;SDS011;42891;50.006;21.964;2023-12-20T12:42:23;29.77;;;19.08;;
56999;SDS011;42891;50.006;21.964;2023-12-20T12:46:28;36.00;;;21.17;;
56999;SDS011;42891;50.006;21.964;2023-12-20T12:50:30;36.35;;;21.05;;
56999;SDS011;42891;50.006;21.964;2023-12-20T12:54:30;31.35;;;19.88;;
56999;SDS011;42891;50.006;21.964;2023-12-20T12:58:31;33.25;;;21.67;;
56999;SDS011;42891;50.006;21.964;2023-12-20T13:02:31;35.25;;;22.55;;
56999;SDS011;42891;50.006;21.964;2023-12-20T13:06:32;35.67;;;22.42;;
56999;SDS011;42891;50.006;21.964;2023-12-20T13:10:32;40.42;;;23.73;;
56999;SDS011;42891;50.006;21.964;2023-12-20T13:14:33;113.82;;;49.55;;
56999;SDS011;42891;50.006;21.964;2023-12-20T13:18:34;50.85;;;30.42;;
56999;SDS011;42891;50.006;21.964;2023-12-20T13:22:35;104.90;;;42.05;;
56999;SDS011;42891;50.006;21.964;2023-12-20T13:26:35;57.25;;;33.28;;
56999;SDS011;42891;50.006;21.964;2023-12-20T13:30:36;42.15;;;24.58;;
56999;SDS011;42891;50.006;21.964;2023-12-20T13:34:36;38.65;;;23.73;;
56999;SDS011;42891;50.006;21.964;2023-12-20T13:38:36;60.33;;;33.30;;
56999;SDS011;42891;50.006;21.964;2023-12-20T13:42:37;47.33;;;28.20;;
56999;SDS011;42891;50.006;21.964;2023-12-20T13:46:37;41.33;;;25.17;;
56999;SDS011;42891;50.006;21.964;2023-12-20T13:50:37;39.70;;;24.05;;
56999;SDS011;42891;50.006;21.964;2023-12-20T13:54:38;41.17;;;24.70;;
56999;SDS011;42891;50.006;21.964;2023-12-20T13:58:38;41.50;;;25.03;;
56999;SDS011;42891;50.006;21.964;2023-12-20T14:02:41;42.60;;;25.35;;
56999;SDS011;42891;50.006;21.964;2023-12-20T14:06:42;41.53;;;25.23;;
56999;SDS011;42891;50.006;21.964;2023-12-20T14:10:42;45.40;;;28.20;;
56999;SDS011;42891;50.006;21.964;2023-12-20T14:14:42;66.83;;;37.83;;
56999;SDS011;42891;50.006;21.964;2023-12-20T14:18:44;59.75;;;34.20;;
56999;SDS011;42891;50.006;21.964;2023-12-20T14:22:45;61.40;;;34.93;;
56999;SDS011;42891;50.006;21.964;2023-12-20T14:26:46;54.65;;;32.33;;
56999;SDS011;42891;50.006;21.964;2023-12-20T14:30:46;53.67;;;30.52;;
56999;SDS011;42891;50.006;21.964;2023-12-20T14:34:47;56.15;;;31.05;;
56999;SDS011;42891;50.006;21.964;2023-12-20T14:38:47;62.72;;;33.95;;
56999;SDS011;42891;50.006;21.964;2023-12-20T14:42:49;71.93;;;38.42;;
56999;SDS011;42891;50.006;21.964;2023-12-20T14:46:50;72.13;;;37.85;;
56999;SDS011;42891;50.006;21.964;2023-12-20T14:50:51;65.90;;;36.08;;
56999;SDS011;42891;50.006;21.964;2023-12-20T14:54:52;53.78;;;33.08;;
56999;SDS011;42891;50.006;21.964;2023-12-20T14:58:52;58.33;;;33.67;;
56999;SDS011;42891;50.006;21.964;2023-12-20T15:02:53;49.20;;;28.65;;
56999;SDS011;42891;50.006;21.964;2023-12-20T15:06:56;52.88;;;29.88;;
56999;SDS011;42891;50.006;21.964;2023-12-20T15:10:56;45.40;;;25.23;;
56999;SDS011;42891;50.006;21.964;2023-12-20T15:14:57;63.20;;;35.60;;
56999;SDS011;42891;50.006;21.964;2023-12-20T15:18:57;59.73;;;34.23;;
56999;SDS011;42891;50.006;21.964;2023-12-20T15:22:58;72.20;;;44.83;;
56999;SDS011;42891;50.006;21.964;2023-12-20T15:27:05;83.35;;;46.58;;
56999;SDS011;42891;50.006;21.964;2023-12-20T15:31:05;66.28;;;35.20;;
56999;SDS011;42891;50.006;21.964;2023-12-20T15:35:06;73.80;;;42.70;;
56999;SDS011;42891;50.006;21.964;2023-12-20T15:39:07;96.25;;;51.22;;
56999;SDS011;42891;50.006;21.964;2023-12-20T15:43:14;85.15;;;47.33;;
56999;SDS011;42891;50.006;21.964;2023-12-20T15:47:14;181.40;;;71.33;;
56999;SDS011;42891;50.006;21.964;2023-12-20T15:51:14;187.82;;;92.53;;
56999;SDS011;42891;50.006;21.964;2023-12-20T15:55:15;61.47;;;37.05;;
56999;SDS011;42891;50.006;21.964;2023-12-20T15:59:15;28.92;;;18.45;;
56999;SDS011;42891;50.006;21.964;2023-12-20T16:03:15;21.38;;;14.38;;
56999;SDS011;42891;50.006;21.964;2023-12-20T16:07:16;21.08;;;13.50;;
56999;SDS011;42891;50.006;21.964;2023-12-20T16:11:16;25.35;;;15.40;;
56999;SDS011;42891;50.006;21.964;2023-12-20T16:15:16;24.65;;;15.63;;
56999;SDS011;42891;50.006;21.964;2023-12-20T16:19:17;43.22;;;33.17;;
56999;SDS011;42891;50.006;21.964;2023-12-20T16:23:18;34.22;;;18.77;;
56999;SDS011;42891;50.006;21.964;2023-12-20T16:27:18;40.57;;;24.27;;
56999;SDS011;42891;50.006;21.964;2023-12-20T16:31:18;31.73;;;18.63;;
56999;SDS011;42891;50.006;21.964;2023-12-20T16:35:18;24.17;;;15.37;;
56999;SDS011;42891;50.006;21.964;2023-12-20T16:39:19;73.53;;;53.97;;
56999;SDS011;42891;50.006;21.964;2023-12-20T16:43:23;28.08;;;16.27;;
56999;SDS011;42891;50.006;21.964;2023-12-20T16:47:23;22.30;;;13.32;;
56999;SDS011;42891;50.006;21.964;2023-12-20T16:51:23;18.38;;;12.18;;
56999;SDS011;42891;50.006;21.964;2023-12-20T16:55:23;26.27;;;15.50;;
56999;SDS011;42891;50.006;21.964;2023-12-20T16:59:24;41.22;;;22.98;;
56999;SDS011;42891;50.006;21.964;2023-12-20T17:03:24;31.93;;;20.67;;
56999;SDS011;42891;50.006;21.964;2023-12-20T17:07:26;34.15;;;21.60;;
56999;SDS011;42891;50.006;21.964;2023-12-20T17:11:27;53.70;;;25.92;;
56999;SDS011;42891;50.006;21.964;2023-12-20T17:15:27;57.57;;;25.53;;
56999;SDS011;42891;50.006;21.964;2023-12-20T17:19:28;51.97;;;25.33;;
56999;SDS011;42891;50.006;21.964;2023-12-20T17:23:30;34.80;;;18.65;;
56999;SDS011;42891;50.006;21.964;2023-12-20T17:27:30;52.38;;;28.20;;
56999;SDS011;42891;50.006;21.964;2023-12-20T17:31:30;38.22;;;20.40;;
56999;SDS011;42891;50.006;21.964;2023-12-20T17:35:31;25.63;;;14.97;;
56999;SDS011;42891;50.006;21.964;2023-12-20T17:39:31;24.77;;;15.43;;
56999;SDS011;42891;50.006;21.964;2023-12-20T17:43:31;29.47;;;17.10;;
56999;SDS011;42891;50.006;21.964;2023-12-20T17:47:32;30.10;;;17.45;;
56999;SDS011;42891;50.006;21.964;2023-12-20T17:51:32;26.50;;;17.85;;
56999;SDS011;42891;50.006;21.964;2023-12-20T17:55:32;32.05;;;18.70;;
56999;SDS011;42891;50.006;21.964;2023-12-20T17:59:32;33.33;;;20.87;;
56999;SDS011;42891;50.006;21.964;2023-12-20T18:03:34;29.38;;;18.30;;
56999;SDS011;42891;50.006;21.964;2023-12-20T18:07:34;29.03;;;16.83;;
56999;SDS011;42891;50.006;21.964;2023-12-20T18:11:34;25.55;;;15.40;;
56999;SDS011;42891;50.006;21.964;2023-12-20T18:15:34;22.23;;;12.67;;
56999;SDS011;42891;50.006;21.964;2023-12-20T18:19:35;16.13;;;9.53;;
56999;SDS011;42891;50.006;21.964;2023-12-20T18:23:35;79.57;;;32.30;;
56999;SDS011;42891;50.006;21.964;2023-12-20T18:27:35;49.77;;;19.27;;
56999;SDS011;42891;50.006;21.964;2023-12-20T18:31:36;32.83;;;16.13;;
56999;SDS011;42891;50.006;21.964;2023-12-20T18:35:36;16.98;;;9.55;;
56999;SDS011;42891;50.006;21.964;2023-12-20T18:39:39;43.55;;;21.80;;
56999;SDS011;42891;50.006;21.964;2023-12-20T18:43:40;42.60;;;23.27;;
56999;SDS011;42891;50.006;21.964;2023-12-20T18:47:42;45.05;;;23.77;;
56999;SDS011;42891;50.006;21.964;2023-12-20T18:51:43;50.87;;;25.37;;
56999;SDS011;42891;50.006;21.964;2023-12-20T18:55:43;56.30;;;32.42;;
56999;SDS011;42891;50.006;21.964;2023-12-20T18:59:44;26.05;;;14.65;;
56999;SDS011;42891;50.006;21.964;2023-12-20T19:03:44;58.63;;;31.97;;
56999;SDS011;42891;50.006;21.964;2023-12-20T19:07:44;55.90;;;29.75;;
56999;SDS011;42891;50.006;21.964;2023-12-20T19:11:45;61.30;;;30.45;;
56999;SDS011;42891;50.006;21.964;2023-12-20T19:15:45;125.40;;;63.50;;
56999;SDS011;42891;50.006;21.964;2023-12-20T19:19:45;77.07;;;40.65;;
56999;SDS011;42891;50.006;21.964;2023-12-20T19:23:46;79.68;;;39.33;;
56999;SDS011;42891;50.006;21.964;2023-12-20T19:27:46;51.55;;;31.00;;
56999;SDS011;42891;50.006;21.964;2023-12-20T19:31:47;39.45;;;25.83;;
56999;SDS011;42891;50.006;21.964;2023-12-20T19:35:47;36.55;;;22.73;;
56999;SDS011;42891;50.006;21.964;2023-12-20T19:39:48;42.67;;;27.38;;
56999;SDS011;42891;50.006;21.964;2023-12-20T19:43:48;45.80;;;26.55;;
56999;SDS011;42891;50.006;21.964;2023-12-20T19:47:49;13.52;;;8.50;;
56999;SDS011;42891;50.006;21.964;2023-12-20T19:51:49;9.40;;;6.38;;
56999;SDS011;42891;50.006;21.964;2023-12-20T19:55:50;9.95;;;5.90;;
56999;SDS011;42891;50.006;21.964;2023-12-20T19:59:50;9.77;;;6.47;;
56999;SDS011;42891;50.006;21.964;2023-12-20T20:03:50;11.52;;;6.60;;
56999;SDS011;42891;50.006;21.964;2023-12-20T20:07:51;10.70;;;6.57;;
56999;SDS011;42891;50.006;21.964;2023-12-20T20:11:51;11.07;;;6.45;;
56999;SDS011;42891;50.006;21.964;2023-12-20T20:15:52;9.88;;;5.75;;
56999;SDS011;42891;50.006;21.964;2023-12-20T20:19:52;10.57;;;6.60;;
56999;SDS011;42891;50.006;21.964;2023-12-20T20:23:52;7.10;;;5.20;;
56999;SDS011;42891;50.006;21.964;2023-12-20T20:27:53;22.15;;;10.27;;
56999;SDS011;42891;50.006;21.964;2023-12-20T20:31:53;14.85;;;9.02;;
56999;SDS011;42891;50.006;21.964;2023-12-20T20:35:53;42.67;;;18.45;;
56999;SDS011;42891;50.006;21.964;2023-12-20T20:39:54;33.78;;;17.50;;
56999;SDS011;42891;50.006;21.964;2023-12-20T20:43:54;35.80;;;18.30;;
56999;SDS011;42891;50.006;21.964;2023-12-20T20:47:54;71.63;;;33.80;;
56999;SDS011;42891;50.006;21.964;2023-12-20T20:51:54;31.85;;;16.55;;
56999;SDS011;42891;50.006;21.964;2023-12-20T20:55:55;28.98;;;15.45;;
56999;SDS011;42891;50.006;21.964;2023-12-20T20:59:55;20.33;;;12.73;;
56999;SDS011;42891;50.006;21.964;2023-12-20T21:03:55;22.42;;;13.35;;
56999;SDS011;42891;50.006;21.964;2023-12-20T21:07:56;21.13;;;12.38;;
56999;SDS011;42891;50.006;21.964;2023-12-20T21:11:57;19.52;;;12.52;;
56999;SDS011;42891;50.006;21.964;2023-12-20T21:15:57;21.13;;;12.37;;
56999;SDS011;42891;50.006;21.964;2023-12-20T21:19:58;24.42;;;13.32;;
56999;SDS011;42891;50.006;21.964;2023-12-20T21:23:59;23.52;;;13.63;;
56999;SDS011;42891;50.006;21.964;2023-12-20T21:27:59;22.60;;;14.05;;
56999;SDS011;42891;50.006;21.964;2023-12-20T21:31:59;21.73;;;13.15;;
56999;SDS011;42891;50.006;21.964;2023-12-20T21:36:00;22.83;;;12.02;;
56999;SDS011;42891;50.006;21.964;2023-12-20T21:40:00;24.58;;;12.50;;
56999;SDS011;42891;50.006;21.964;2023-12-20T21:44:00;22.05;;;12.85;;
56999;SDS011;42891;50.006;21.964;2023-12-20T21:48:01;20.88;;;12.32;;
56999;SDS011;42891;50.006;21.964;2023-12-20T21:52:03;21.10;;;12.50;;
56999;SDS011;42891;50.006;21.964;2023-12-20T21:56:04;19.42;;;11.40;;
56999;SDS011;42891;50.006;21.964;2023-12-20T22:00:05;20.40;;;10.85;;
56999;SDS011;42891;50.006;21.964;2023-12-20T22:04:07;20.75;;;11.05;;
56999;SDS011;42891;50.006;21.964;2023-12-20T22:08:08;18.02;;;10.82;;
56999;SDS011;42891;50.006;21.964;2023-12-20T22:12:08;16.60;;;10.77;;
56999;SDS011;42891;50.006;21.964;2023-12-20T22:16:08;17.65;;;11.13;;
56999;SDS011;42891;50.006;21.964;2023-12-20T22:20:09;20.42;;;10.93;;
56999;SDS011;42891;50.006;21.964;2023-12-20T22:24:10;17.98;;;10.52;;
56999;SDS011;42891;50.006;21.964;2023-12-20T22:28:10;25.42;;;13.05;;
56999;SDS011;42891;50.006;21.964;2023-12-20T22:32:11;21.58;;;11.23;;
56999;SDS011;42891;50.006;21.964;2023-12-20T22:36:11;20.23;;;11.25;;
56999;SDS011;42891;50.006;21.964;2023-12-20T22:40:12;20.40;;;11.80;;
56999;SDS011;42891;50.006;21.964;2023-12-20T22:44:13;38.35;;;17.20;;
56999;SDS011;42891;50.006;21.964;2023-12-20T22:48:13;75.13;;;37.05;;
56999;SDS011;42891;50.006;21.964;2023-12-20T22:52:13;33.20;;;18.88;;
56999;SDS011;42891;50.006;21.964;2023-12-20T22:56:14;26.92;;;14.60;;
56999;SDS011;42891;50.006;21.964;2023-12-20T23:00:14;30.27;;;16.77;;
56999;SDS011;42891;50.006;21.964;2023-12-20T23:04:23;21.02;;;12.68;;
56999;SDS011;42891;50.006;21.964;2023-12-20T23:08:24;15.93;;;10.25;;
56999;SDS011;42891;50.006;21.964;2023-12-20T23:12:24;16.42;;;9.45;;
56999;SDS011;42891;50.006;21.964;2023-12-20T23:16:25;15.88;;;9.40;;
56999;SDS011;42891;50.006;21.964;2023-12-20T23:20:25;15.93;;;9.57;;